createdAt,value
2019-01-17T05:00:57.819Z,6.03
2019-01-17T05:01:57.683Z,6.02
2019-01-17T05:03:50.351Z,6.07
2019-01-17T05:04:50.241Z,6.07
2019-01-17T05:06:42.928Z,6.13
2019-01-17T05:07:42.801Z,6.05
2019-01-17T05:09:35.467Z,6.06
2019-01-17T05:10:35.343Z,6.09
2019-01-17T05:12:28.038Z,6.17
2019-01-17T05:13:27.894Z,6.10
2019-01-17T05:15:20.566Z,6.21
2019-01-17T05:16:20.437Z,6.37
2019-01-17T05:18:13.101Z,6.28
2019-01-17T05:19:12.992Z,6.37
2019-01-17T05:21:05.662Z,6.33
2019-01-17T05:22:05.546Z,6.24
2019-01-17T05:23:58.198Z,6.28
2019-01-17T05:24:58.088Z,6.37
2019-01-17T05:26:50.755Z,6.34
2019-01-17T05:27:50.633Z,6.36
2019-01-17T05:29:43.290Z,6.36
2019-01-17T05:30:43.189Z,6.37
2019-01-17T05:32:36.829Z,6.39
2019-01-17T05:33:35.730Z,6.46
2019-01-17T05:35:28.396Z,6.43
2019-01-17T05:36:28.273Z,6.43
2019-01-17T05:38:20.930Z,6.44
2019-01-17T05:39:20.815Z,6.37
2019-01-17T05:41:13.492Z,6.42
2019-01-17T05:42:13.363Z,6.49
2019-01-17T05:44:06.032Z,6.40
2019-01-17T05:45:05.918Z,6.42
2019-01-17T05:46:58.592Z,6.44
2019-01-17T05:47:58.472Z,6.37
2019-01-17T05:49:51.143Z,6.43
2019-01-17T05:50:51.016Z,6.42
2019-01-17T05:52:43.679Z,6.47
2019-01-17T05:53:43.567Z,6.47
2019-01-17T05:55:36.252Z,6.47
2019-01-17T05:56:36.109Z,6.46
2019-01-17T05:58:28.770Z,6.46
2019-01-17T05:59:29.129Z,6.44
2019-01-17T06:01:21.330Z,6.43
2019-01-17T06:02:21.200Z,6.43
2019-01-17T06:04:13.866Z,6.43
2019-01-17T06:05:13.748Z,6.43
2019-01-17T06:07:06.424Z,6.46
2019-01-17T06:08:06.291Z,6.44
2019-01-17T06:09:58.968Z,6.54
2019-01-17T06:10:58.836Z,6.55
2019-01-17T06:12:51.499Z,6.54
2019-01-17T06:13:51.396Z,6.55
2019-01-17T06:15:44.064Z,6.39
2019-01-17T06:16:43.932Z,6.37
2019-01-17T06:18:36.596Z,6.42
2019-01-17T06:19:36.483Z,6.46
2019-01-17T06:21:29.158Z,6.49
2019-01-17T06:22:29.030Z,6.51
2019-01-17T06:24:21.695Z,6.55
2019-01-17T06:25:28.006Z,6.57
2019-01-17T06:27:14.253Z,6.57
2019-01-17T06:28:14.133Z,6.52
2019-01-17T06:30:06.803Z,6.52
2019-01-17T06:31:06.671Z,6.46
2019-01-17T06:32:59.340Z,6.57
2019-01-17T06:33:59.222Z,6.51
2019-01-17T06:35:51.898Z,6.57
2019-01-17T06:36:51.767Z,6.43
2019-01-17T06:38:44.429Z,6.47
2019-01-17T06:39:44.321Z,6.42
2019-01-17T06:41:36.993Z,6.44
2019-01-17T06:42:36.873Z,6.49
2019-01-17T06:44:29.652Z,6.47
2019-01-17T06:45:29.414Z,6.58
2019-01-17T06:47:22.069Z,6.44
2019-01-17T06:48:21.958Z,6.51
2019-01-17T06:50:14.640Z,6.40
2019-01-17T06:51:14.516Z,6.36
2019-01-17T06:53:07.173Z,6.26
2019-01-17T06:54:07.059Z,6.24
2019-01-17T06:55:59.739Z,6.25
2019-01-17T06:56:59.608Z,6.29
2019-01-17T06:58:52.284Z,6.21
2019-01-17T06:59:52.172Z,6.13
2019-01-17T07:01:44.846Z,6.25
2019-01-17T07:02:44.715Z,6.24
2019-01-17T07:04:37.364Z,6.24
2019-01-17T07:05:37.320Z,6.25
2019-01-17T07:07:29.923Z,6.29
2019-01-17T07:08:29.795Z,6.26
2019-01-17T07:10:22.508Z,6.31
2019-01-17T07:11:22.366Z,6.29
2019-01-17T07:13:15.034Z,6.25
2019-01-17T07:14:14.918Z,6.21
2019-01-17T07:16:07.591Z,6.14
2019-01-17T07:17:07.465Z,6.15
2019-01-17T07:19:00.127Z,6.21
2019-01-17T07:20:00.011Z,6.13
2019-01-17T07:21:52.690Z,6.13
2019-01-17T07:22:52.553Z,6.17
2019-01-17T07:24:45.222Z,6.10
2019-01-17T07:25:45.100Z,6.14
2019-01-17T07:27:37.779Z,6.17
2019-01-17T07:28:37.653Z,6.10
2019-01-17T07:30:30.334Z,6.07
2019-01-17T07:31:30.195Z,6.09
2019-01-17T07:33:22.864Z,6.10
2019-01-17T07:34:22.755Z,6.25
2019-01-17T07:36:15.431Z,6.25
2019-01-17T07:37:15.298Z,6.10
2019-01-17T07:39:07.956Z,6.13
2019-01-17T07:40:07.844Z,6.06
2019-01-17T07:42:00.518Z,6.03
2019-01-17T07:43:00.390Z,6.15
2019-01-17T07:44:53.047Z,6.10
2019-01-17T07:45:52.935Z,6.13
2019-01-17T07:47:45.608Z,6.07
2019-01-17T07:48:45.480Z,6.10
2019-01-17T07:50:38.158Z,6.13
2019-01-17T07:51:38.022Z,6.07
2019-01-17T07:53:30.686Z,6.07
2019-01-17T07:54:30.569Z,6.09
2019-01-17T07:56:23.237Z,6.09
2019-01-17T07:57:23.121Z,6.10
2019-01-17T07:59:15.767Z,6.07
2019-01-17T08:00:15.659Z,6.14
2019-01-17T08:02:08.342Z,6.07
2019-01-17T08:03:08.206Z,6.20
2019-01-17T08:05:00.907Z,6.24
2019-01-17T08:06:00.756Z,6.34
2019-01-17T08:07:53.437Z,6.28
2019-01-17T08:08:53.300Z,6.34
2019-01-17T08:10:45.977Z,6.46
2019-01-17T08:11:45.846Z,6.43
2019-01-17T08:13:38.513Z,6.47
2019-01-17T08:14:38.394Z,6.58
2019-01-17T08:16:31.088Z,6.65
2019-01-17T08:17:30.955Z,6.65
2019-01-17T08:19:23.614Z,6.83
2019-01-17T08:20:23.505Z,6.75
2019-01-17T08:22:16.191Z,6.73
2019-01-17T08:23:16.058Z,6.67
2019-01-17T08:25:08.718Z,6.64
2019-01-17T08:26:08.610Z,6.68
2019-01-17T08:28:01.283Z,6.76
2019-01-17T08:29:01.155Z,6.82
2019-01-17T08:30:53.830Z,6.94
2019-01-17T08:31:53.704Z,6.93
2019-01-17T08:33:46.368Z,6.83
2019-01-17T08:34:46.253Z,6.85
2019-01-17T08:36:38.922Z,6.80
2019-01-17T08:37:38.802Z,6.78
2019-01-17T08:39:31.462Z,6.76
2019-01-17T08:40:31.347Z,6.64
2019-01-17T08:42:24.024Z,6.64
2019-01-17T08:43:23.897Z,6.65
2019-01-17T08:45:16.575Z,6.70
2019-01-17T08:46:16.440Z,6.70
2019-01-17T08:48:09.099Z,6.68
2019-01-17T08:49:08.986Z,6.68
2019-01-17T08:51:01.669Z,6.64
2019-01-17T08:52:01.541Z,6.61
2019-01-17T08:53:54.195Z,6.54
2019-01-17T08:54:54.083Z,6.57
2019-01-17T08:56:46.752Z,6.52
2019-01-17T08:57:46.622Z,6.46
2019-01-17T08:59:39.305Z,6.42
2019-01-17T09:00:39.166Z,6.40
2019-01-17T09:02:31.825Z,6.52
2019-01-17T09:03:31.713Z,6.57
2019-01-17T09:05:24.387Z,6.62
2019-01-17T09:06:24.252Z,6.67
2019-01-17T09:08:16.918Z,6.70
2019-01-17T09:09:16.801Z,6.68
2019-01-17T09:11:09.480Z,6.64
2019-01-17T09:12:09.356Z,6.73
2019-01-17T09:14:02.010Z,6.82
2019-01-17T09:15:01.903Z,6.86
2019-01-17T09:16:54.574Z,6.79
2019-01-17T09:17:54.447Z,6.90
2019-01-17T09:19:47.128Z,6.95
2019-01-17T09:20:46.995Z,6.98
2019-01-17T09:22:39.659Z,7.16
2019-01-17T09:23:39.541Z,7.09
2019-01-17T09:25:32.216Z,7.18
2019-01-17T09:26:32.094Z,6.98
2019-01-17T09:28:24.741Z,7.09
2019-01-17T09:29:24.637Z,7.03
2019-01-17T09:31:17.312Z,7.12
2019-01-17T09:32:17.184Z,7.11
2019-01-17T09:34:09.845Z,7.15
2019-01-17T09:35:09.731Z,7.27
2019-01-17T09:37:02.414Z,7.44
2019-01-17T09:38:02.279Z,7.51
2019-01-17T09:39:54.960Z,7.37
2019-01-17T09:40:54.840Z,7.45
2019-01-17T09:42:47.505Z,7.41
2019-01-17T09:43:47.377Z,7.37
2019-01-17T09:45:40.060Z,7.44
2019-01-17T09:46:39.933Z,7.34
2019-01-17T09:48:32.598Z,7.30
2019-01-17T09:49:32.486Z,7.34
2019-01-17T09:51:25.165Z,7.45
2019-01-17T09:52:25.042Z,7.49
2019-01-17T09:54:17.746Z,7.54
2019-01-17T09:55:17.610Z,7.67
2019-01-17T09:57:10.266Z,7.47
2019-01-17T09:58:10.160Z,7.61
2019-01-17T10:00:02.838Z,7.63
2019-01-17T10:01:02.704Z,7.67
2019-01-17T10:02:55.372Z,7.56
2019-01-17T10:03:55.260Z,7.59
2019-01-17T10:05:47.987Z,7.64
2019-01-17T10:06:47.811Z,7.77
2019-01-17T10:08:40.472Z,7.77
2019-01-17T10:09:40.356Z,7.75
2019-01-17T10:11:33.039Z,7.74
2019-01-17T10:12:32.913Z,7.77
2019-01-17T10:14:25.586Z,7.68
2019-01-17T10:15:25.462Z,7.64
2019-01-17T10:17:18.123Z,7.70
2019-01-17T10:18:18.006Z,7.77
2019-01-17T10:20:10.691Z,7.82
2019-01-17T10:21:10.560Z,7.74
2019-01-17T10:23:03.223Z,7.63
2019-01-17T10:24:03.112Z,7.58
2019-01-17T10:25:55.809Z,7.68
2019-01-17T10:26:55.688Z,7.77
2019-01-17T10:28:48.346Z,7.78
2019-01-17T10:29:48.234Z,7.80
2019-01-17T10:31:40.913Z,7.74
2019-01-17T10:32:40.789Z,7.74
2019-01-17T10:34:33.471Z,7.80
2019-01-17T10:35:33.335Z,7.75
2019-01-17T10:37:26.004Z,7.74
2019-01-17T10:38:25.889Z,7.75
2019-01-17T10:40:18.577Z,7.68
2019-01-17T10:41:18.444Z,7.55
2019-01-17T10:43:11.105Z,7.51
2019-01-17T10:44:10.992Z,7.56
2019-01-17T10:46:03.675Z,7.55
2019-01-17T10:47:03.547Z,7.51
2019-01-17T10:48:56.228Z,7.44
2019-01-17T10:49:56.097Z,7.58
2019-01-17T10:51:49.514Z,7.47
2019-01-17T10:52:48.645Z,7.48
2019-01-17T10:54:41.322Z,7.39
2019-01-17T10:55:41.199Z,7.30
2019-01-17T10:57:33.861Z,7.12
2019-01-17T10:58:33.751Z,7.12
2019-01-17T11:00:26.436Z,6.98
2019-01-17T11:01:26.300Z,6.94
2019-01-17T11:03:18.966Z,6.80
2019-01-17T11:04:18.855Z,6.68
2019-01-17T11:06:11.538Z,6.55
2019-01-17T11:07:11.406Z,6.55
2019-01-17T11:09:04.078Z,6.42
2019-01-17T11:10:03.947Z,6.37
2019-01-17T11:11:56.637Z,6.21
2019-01-17T11:12:56.504Z,6.28
2019-01-17T11:14:49.181Z,6.25
2019-01-17T11:15:49.054Z,6.25
2019-01-17T11:17:41.718Z,6.28
2019-01-17T11:18:41.599Z,6.26
2019-01-17T11:20:34.290Z,6.13
2019-01-17T11:21:34.150Z,6.20
2019-01-17T11:23:26.829Z,6.14
2019-01-17T11:24:26.712Z,6.09
2019-01-17T11:26:19.390Z,6.14
2019-01-17T11:27:19.260Z,6.14
2019-01-17T11:29:11.923Z,6.09
2019-01-17T11:30:11.811Z,6.13
2019-01-17T11:32:04.489Z,5.92
2019-01-17T11:33:04.357Z,5.88
2019-01-17T11:34:57.036Z,5.92
2019-01-17T11:35:56.899Z,5.85
2019-01-17T11:37:49.560Z,5.99
2019-01-17T11:38:49.453Z,5.96
2019-01-17T11:40:42.125Z,5.82
2019-01-17T11:41:41.994Z,5.85
2019-01-17T11:43:34.692Z,5.73
2019-01-17T11:44:34.536Z,5.72
2019-01-17T11:46:27.214Z,5.82
2019-01-17T11:47:27.087Z,5.84
2019-01-17T11:49:19.752Z,5.75
2019-01-17T11:50:19.641Z,5.73
2019-01-17T11:52:12.310Z,5.85
2019-01-17T11:53:12.178Z,5.63
2019-01-17T11:55:04.838Z,5.48
2019-01-17T11:56:04.725Z,5.34
2019-01-17T11:57:57.404Z,5.30
2019-01-17T11:59:00.170Z,5.16
2019-01-17T12:00:49.958Z,5.06
2019-01-17T12:01:49.810Z,5.05
2019-01-17T12:03:42.475Z,5.02
2019-01-17T12:04:42.360Z,5.00
2019-01-17T12:06:35.101Z,5.02
2019-01-17T12:07:34.994Z,5.02
2019-01-17T12:09:27.607Z,5.00
2019-01-17T12:10:27.490Z,4.90
2019-01-17T12:12:20.173Z,4.71
2019-01-17T12:13:20.042Z,4.78
2019-01-17T12:15:12.702Z,4.75
2019-01-17T12:16:12.589Z,4.78
2019-01-17T12:18:05.263Z,4.76
2019-01-17T12:19:05.138Z,4.84
2019-01-17T12:20:57.819Z,4.92
2019-01-17T12:21:57.688Z,4.94
2019-01-17T12:23:50.340Z,5.18
2019-01-17T12:24:50.230Z,5.18
2019-01-17T12:26:47.434Z,5.28
2019-01-17T12:27:42.888Z,5.42
2019-01-17T12:29:35.450Z,5.39
2019-01-17T12:30:35.329Z,5.51
2019-01-17T12:32:28.525Z,5.54
2019-01-17T12:33:28.391Z,5.39
2019-01-17T12:35:21.049Z,5.49
2019-01-17T12:36:20.935Z,5.52
2019-01-17T12:38:13.615Z,5.44
2019-01-17T12:39:13.481Z,5.46
2019-01-17T12:41:06.151Z,5.42
2019-01-17T12:42:06.035Z,5.37
2019-01-17T12:43:58.721Z,5.31
2019-01-17T12:44:58.586Z,5.37
2019-01-17T12:46:51.287Z,5.24
2019-01-17T12:47:51.156Z,5.16
2019-01-17T12:49:43.821Z,5.27
2019-01-17T12:50:43.708Z,5.21
2019-01-17T12:52:36.385Z,5.36
2019-01-17T12:53:36.258Z,5.36
2019-01-17T12:55:28.923Z,5.41
2019-01-17T12:56:28.810Z,5.28
2019-01-17T12:58:21.491Z,5.41
2019-01-17T12:59:21.359Z,5.42
2019-01-17T13:01:14.027Z,5.49
2019-01-17T13:02:13.913Z,5.42
2019-01-17T13:04:06.596Z,5.62
2019-01-17T13:05:06.472Z,5.64
2019-01-17T13:06:59.155Z,5.66
2019-01-17T13:07:59.021Z,5.64
2019-01-17T13:09:51.675Z,5.51
2019-01-17T13:10:51.580Z,5.45
2019-01-17T13:12:44.242Z,5.37
2019-01-17T13:13:44.118Z,5.39
2019-01-17T13:15:36.782Z,5.21
2019-01-17T13:16:36.667Z,5.10
2019-01-17T13:18:29.437Z,5.09
2019-01-17T13:19:29.322Z,5.12
2019-01-17T13:21:21.970Z,5.24
2019-01-17T13:22:21.854Z,5.31
2019-01-17T13:24:14.528Z,5.42
2019-01-17T13:25:14.417Z,5.41
2019-01-17T13:27:07.058Z,5.09
2019-01-17T13:28:06.944Z,5.05
2019-01-17T13:29:59.624Z,5.16
2019-01-17T13:30:59.491Z,5.08
2019-01-17T13:32:52.167Z,5.13
2019-01-17T13:33:52.035Z,5.15
2019-01-17T13:35:44.702Z,5.09
2019-01-17T13:36:44.584Z,5.15
2019-01-17T13:38:37.266Z,5.13
2019-01-17T13:39:37.134Z,5.12
2019-01-17T13:41:29.794Z,5.12
2019-01-17T13:42:29.681Z,5.13
2019-01-17T13:44:22.364Z,5.12
2019-01-17T13:45:22.992Z,5.12
2019-01-17T13:47:14.911Z,5.03
2019-01-17T13:48:14.781Z,5.06
2019-01-17T13:50:07.439Z,5.05
2019-01-17T13:51:07.323Z,5.02
2019-01-17T13:53:00.000Z,5.08
2019-01-17T13:53:59.872Z,5.05
2019-01-17T13:55:52.531Z,4.98
2019-01-17T13:56:52.414Z,4.94
2019-01-17T13:58:45.094Z,4.90
2019-01-17T13:59:44.963Z,5.00
2019-01-17T14:01:37.621Z,4.91
2019-01-17T14:02:37.509Z,4.78
2019-01-17T14:04:30.184Z,4.75
2019-01-17T14:05:30.052Z,4.72
2019-01-17T14:07:22.728Z,4.83
2019-01-17T14:08:22.599Z,4.75
2019-01-17T14:10:15.255Z,4.83
2019-01-17T14:11:15.138Z,4.76
2019-01-17T14:13:07.810Z,4.88
2019-01-17T14:14:07.688Z,4.98
2019-01-17T14:16:00.341Z,4.92
2019-01-17T14:17:00.219Z,4.94
2019-01-17T14:18:52.894Z,4.85
2019-01-17T14:19:52.768Z,4.91
2019-01-17T14:21:45.430Z,4.92
2019-01-17T14:22:45.316Z,4.98
2019-01-17T14:24:38.008Z,4.98
2019-01-17T14:25:37.860Z,5.05
2019-01-17T14:27:30.536Z,5.02
2019-01-17T14:28:30.404Z,5.12
2019-01-17T14:30:23.064Z,5.10
2019-01-17T14:31:22.947Z,5.09
2019-01-17T14:33:15.623Z,5.24
2019-01-17T14:34:15.492Z,5.30
2019-01-17T14:36:08.150Z,5.36
2019-01-17T14:37:08.042Z,5.30
2019-01-17T14:39:00.715Z,5.37
2019-01-17T14:40:00.589Z,5.33
2019-01-17T14:41:53.265Z,5.37
2019-01-17T14:42:53.136Z,5.27
2019-01-17T14:44:45.794Z,5.30
2019-01-17T14:45:45.680Z,5.20
2019-01-17T14:47:38.346Z,5.16
2019-01-17T14:48:38.224Z,5.02
2019-01-17T14:50:30.888Z,5.03
2019-01-17T14:51:30.767Z,5.08
2019-01-17T14:53:23.441Z,5.08
2019-01-17T14:54:23.311Z,5.08
2019-01-17T14:56:15.993Z,5.10
2019-01-17T14:57:20.552Z,5.03
2019-01-17T14:59:08.515Z,5.03
2019-01-17T15:00:08.402Z,5.00
2019-01-17T15:02:01.072Z,5.02
2019-01-17T15:03:00.951Z,5.02
2019-01-17T15:04:53.606Z,5.00
2019-01-17T15:05:53.489Z,5.06
2019-01-17T15:07:46.163Z,5.02
2019-01-17T15:08:46.034Z,5.08
2019-01-17T15:10:38.709Z,5.02
2019-01-17T15:11:38.594Z,4.90
2019-01-17T15:13:31.284Z,4.95
2019-01-17T15:14:31.156Z,4.75
2019-01-17T15:16:23.831Z,4.60
2019-01-17T15:17:23.718Z,4.51
2019-01-17T15:19:16.355Z,4.39
2019-01-17T15:20:16.233Z,4.28
2019-01-17T15:22:09.007Z,4.28
2019-01-17T15:23:08.868Z,4.29
2019-01-17T15:25:01.545Z,4.28
2019-01-17T15:26:01.415Z,4.26
2019-01-17T15:27:54.095Z,4.28
2019-01-17T15:28:53.960Z,4.32
2019-01-17T15:30:46.621Z,4.24
2019-01-17T15:31:46.502Z,4.30
2019-01-17T15:33:39.178Z,4.28
2019-01-17T15:34:39.045Z,4.28
2019-01-17T15:36:31.702Z,4.29
2019-01-17T15:37:31.595Z,4.21
2019-01-17T15:39:24.266Z,4.33
2019-01-17T15:40:24.134Z,4.32
2019-01-17T15:42:16.850Z,4.28
2019-01-17T15:43:16.755Z,4.17
2019-01-17T15:45:09.339Z,4.26
2019-01-17T15:46:09.220Z,4.15
2019-01-17T15:48:01.899Z,4.11
2019-01-17T15:49:01.765Z,4.04
2019-01-17T15:50:54.431Z,4.07
2019-01-17T15:51:54.315Z,3.93
2019-01-17T15:53:46.994Z,3.86
2019-01-17T15:54:46.862Z,3.81
2019-01-17T15:56:39.524Z,3.76
2019-01-17T15:57:39.405Z,3.81
2019-01-17T15:59:32.079Z,3.69
2019-01-17T16:00:31.949Z,3.71
2019-01-17T16:02:24.607Z,3.76
2019-01-17T16:03:24.495Z,3.75
2019-01-17T16:05:17.171Z,3.74
2019-01-17T16:06:17.033Z,3.74
2019-01-17T16:08:09.726Z,3.69
2019-01-17T16:09:09.634Z,3.64
2019-01-17T16:11:02.253Z,3.71
2019-01-17T16:12:02.135Z,3.78
2019-01-17T16:13:54.879Z,3.61
2019-01-17T16:14:54.676Z,3.72
2019-01-17T16:16:48.351Z,3.76
2019-01-17T16:17:47.224Z,3.75
2019-01-17T16:19:39.901Z,3.84
2019-01-17T16:20:39.766Z,3.79
2019-01-17T16:22:32.429Z,3.81
2019-01-17T16:23:32.341Z,3.85
2019-01-17T16:25:24.993Z,3.84
2019-01-17T16:26:24.861Z,3.89
2019-01-17T16:28:17.518Z,3.82
2019-01-17T16:29:17.403Z,3.86
2019-01-17T16:31:10.078Z,3.89
2019-01-17T16:32:09.950Z,3.82
2019-01-17T16:34:02.644Z,3.85
2019-01-17T16:35:02.496Z,3.78
2019-01-17T16:36:55.187Z,3.78
2019-01-17T16:37:55.039Z,3.74
2019-01-17T16:39:47.709Z,3.79
2019-01-17T16:40:47.578Z,3.71
2019-01-17T16:42:40.240Z,3.76
2019-01-17T16:43:40.120Z,3.69
2019-01-17T16:45:35.629Z,3.67
2019-01-17T16:46:32.669Z,3.72
2019-01-17T16:48:25.319Z,3.74
2019-01-17T16:49:25.205Z,3.72
2019-01-17T16:51:17.881Z,3.84
2019-01-17T16:52:17.755Z,3.72
2019-01-17T16:54:10.433Z,3.82
2019-01-17T16:55:10.295Z,3.81
2019-01-17T16:57:02.959Z,3.85
2019-01-17T16:58:02.839Z,3.81
2019-01-17T16:59:55.515Z,3.90
2019-01-17T17:00:55.384Z,3.86
2019-01-17T17:02:48.048Z,3.81
2019-01-17T17:03:47.932Z,3.89
2019-01-17T17:05:40.617Z,3.79
2019-01-17T17:06:40.476Z,3.84
2019-01-17T17:08:33.139Z,3.94
2019-01-17T17:09:33.021Z,3.82
2019-01-17T17:11:25.693Z,3.84
2019-01-17T17:12:25.566Z,3.81
2019-01-17T17:14:18.232Z,3.86
2019-01-17T17:15:18.108Z,3.86
2019-01-17T17:17:10.782Z,3.97
2019-01-17T17:18:10.669Z,3.96
2019-01-17T17:20:03.316Z,3.94
2019-01-17T17:21:03.194Z,4.03
2019-01-17T17:22:55.892Z,4.10
2019-01-17T17:23:55.766Z,4.10
2019-01-17T17:25:48.443Z,4.14
2019-01-17T17:26:48.302Z,4.12
2019-01-17T17:28:40.963Z,4.24
2019-01-17T17:29:40.847Z,4.14
2019-01-17T17:31:33.524Z,4.24
2019-01-17T17:32:33.393Z,4.22
2019-01-17T17:34:26.051Z,4.24
2019-01-17T17:35:25.935Z,4.20
2019-01-17T17:37:18.606Z,4.17
2019-01-17T17:38:18.477Z,4.17
2019-01-17T17:40:11.197Z,4.21
2019-01-17T17:41:11.049Z,4.14
2019-01-17T17:43:03.722Z,4.15
2019-01-17T17:44:03.601Z,4.15
2019-01-17T17:45:56.251Z,4.22
2019-01-17T17:46:57.436Z,4.24
2019-01-17T17:48:48.827Z,4.26
2019-01-17T17:49:48.712Z,4.22
2019-01-17T17:51:41.363Z,4.22
2019-01-17T17:52:41.235Z,4.22
2019-01-17T17:54:33.895Z,4.15
2019-01-17T17:55:33.781Z,4.15
2019-01-17T17:57:26.452Z,4.26
2019-01-17T17:58:26.325Z,4.22
2019-01-17T18:00:18.980Z,4.15
2019-01-17T18:01:18.872Z,4.14
2019-01-17T18:03:11.540Z,4.14
2019-01-17T18:04:11.414Z,4.21
2019-01-17T18:06:04.069Z,4.24
2019-01-17T18:07:03.959Z,4.29
2019-01-17T18:08:56.638Z,4.26
2019-01-17T18:09:56.509Z,4.30
2019-01-17T18:11:49.202Z,4.32
2019-01-17T18:12:49.069Z,4.30
2019-01-17T18:14:41.780Z,4.32
2019-01-17T18:15:41.613Z,4.29
2019-01-17T18:17:34.287Z,4.29
2019-01-17T18:18:34.154Z,4.22
2019-01-17T18:20:26.810Z,4.18
2019-01-17T18:21:26.696Z,4.21
2019-01-17T18:23:19.381Z,4.10
2019-01-17T18:24:19.249Z,4.08
2019-01-17T18:26:11.922Z,4.07
2019-01-17T18:27:11.794Z,4.03
2019-01-17T18:29:04.471Z,3.93
2019-01-17T18:30:04.339Z,3.96
2019-01-17T18:31:57.015Z,3.85
2019-01-17T18:32:56.888Z,3.85
2019-01-17T18:34:49.541Z,3.79
2019-01-17T18:35:49.433Z,3.84
2019-01-17T18:37:42.107Z,3.79
2019-01-17T18:38:41.973Z,3.67
2019-01-17T18:40:34.629Z,3.63
2019-01-17T18:41:34.623Z,3.75
2019-01-17T18:43:27.191Z,3.72
2019-01-17T18:44:27.066Z,3.71
2019-01-17T18:46:19.748Z,3.66
2019-01-17T18:47:19.616Z,3.67
2019-01-17T18:49:12.275Z,3.69
2019-01-17T18:50:12.157Z,3.71
2019-01-17T18:52:04.841Z,3.69
2019-01-17T18:53:04.709Z,3.58
2019-01-17T18:54:57.367Z,3.82
2019-01-17T18:55:57.254Z,3.78
2019-01-17T18:57:49.928Z,3.81
2019-01-17T18:58:49.797Z,3.81
2019-01-17T19:00:42.455Z,3.82
2019-01-17T19:01:42.344Z,3.78
2019-01-17T19:03:35.024Z,3.71
2019-01-17T19:04:34.897Z,3.72
2019-01-17T19:06:27.577Z,3.75
2019-01-17T19:07:27.448Z,3.74
2019-01-17T19:09:20.099Z,3.67
2019-01-17T19:10:20.079Z,3.71
2019-01-17T19:12:12.655Z,3.58
2019-01-17T19:13:12.537Z,3.64
2019-01-17T19:15:05.187Z,3.58
2019-01-17T19:16:05.074Z,3.53
2019-01-17T19:17:57.747Z,3.48
2019-01-17T19:18:57.620Z,3.53
2019-01-17T19:20:50.302Z,3.42
2019-01-17T19:21:50.173Z,3.42
2019-01-17T19:23:42.836Z,3.45
2019-01-17T19:24:42.714Z,3.35
2019-01-17T19:26:35.387Z,3.29
2019-01-17T19:27:35.255Z,3.32
2019-01-17T19:29:27.908Z,3.32
2019-01-17T19:30:27.846Z,3.27
2019-01-17T19:32:20.470Z,3.37
2019-01-17T19:33:20.345Z,3.40
2019-01-17T19:35:13.024Z,3.35
2019-01-17T19:36:12.891Z,3.46
2019-01-17T19:38:05.558Z,3.40
2019-01-17T19:39:05.445Z,3.39
2019-01-17T19:40:58.126Z,3.54
2019-01-17T19:41:57.995Z,3.53
2019-01-17T19:43:50.655Z,3.39
2019-01-17T19:44:50.542Z,3.46
2019-01-17T19:46:43.209Z,3.45
2019-01-17T19:47:43.085Z,3.43
2019-01-17T19:49:35.749Z,3.43
2019-01-17T19:50:35.636Z,3.46
2019-01-17T19:52:28.308Z,3.46
2019-01-17T19:53:28.181Z,3.45
2019-01-17T19:55:20.862Z,3.49
2019-01-17T19:56:20.731Z,3.46
2019-01-17T19:58:13.385Z,3.45
2019-01-17T19:59:13.271Z,3.34
2019-01-17T20:01:05.940Z,3.32
2019-01-17T20:02:05.815Z,3.24
2019-01-17T20:03:58.475Z,3.29
2019-01-17T20:04:58.382Z,3.23
2019-01-17T20:06:51.031Z,3.23
2019-01-17T20:07:50.899Z,3.23
2019-01-17T20:09:43.595Z,3.21
2019-01-17T20:10:43.450Z,3.20
2019-01-17T20:12:36.119Z,3.08
2019-01-17T20:13:35.996Z,3.20
2019-01-17T20:15:28.702Z,3.06
2019-01-17T20:16:28.557Z,3.13
2019-01-17T20:18:21.222Z,3.19
2019-01-17T20:19:21.103Z,3.23
2019-01-17T20:21:13.898Z,3.20
2019-01-17T20:22:13.645Z,3.24
2019-01-17T20:24:06.315Z,3.23
2019-01-17T20:25:06.228Z,3.29
2019-01-17T20:26:58.853Z,3.34
2019-01-17T20:27:58.726Z,3.40
2019-01-17T20:29:51.407Z,3.37
2019-01-17T20:30:51.272Z,3.35
2019-01-17T20:32:44.427Z,3.43
2019-01-17T20:33:44.300Z,3.30
2019-01-17T20:35:37.258Z,3.32
2019-01-17T20:36:36.855Z,3.32
2019-01-17T20:38:29.524Z,3.35
2019-01-17T20:39:29.411Z,3.35
2019-01-17T20:41:22.082Z,3.43
2019-01-17T20:42:21.951Z,3.32
2019-01-17T20:44:14.637Z,3.40
2019-01-17T20:45:14.526Z,3.30
2019-01-17T20:47:07.198Z,3.39
2019-01-17T20:48:07.076Z,3.30
2019-01-17T20:49:59.758Z,3.24
2019-01-17T20:50:59.634Z,3.32
2019-01-17T20:52:52.299Z,3.19
2019-01-17T20:53:52.182Z,3.21
2019-01-17T20:55:44.851Z,3.21
2019-01-17T20:56:44.724Z,3.19
2019-01-17T20:58:42.286Z,3.27
2019-01-17T20:59:37.277Z,3.19
2019-01-17T21:01:29.948Z,3.35
2019-01-17T21:02:29.834Z,3.21
2019-01-17T21:04:22.472Z,3.21
2019-01-17T21:05:22.358Z,3.21
2019-01-17T21:07:15.032Z,3.37
2019-01-17T21:08:14.905Z,3.32
2019-01-17T21:10:07.578Z,3.27
2019-01-17T21:11:07.439Z,3.24
2019-01-17T21:13:00.093Z,3.17
2019-01-17T21:14:00.786Z,3.02
2019-01-17T21:15:52.677Z,2.93
2019-01-17T21:16:52.533Z,2.98
2019-01-17T21:18:45.199Z,2.88
2019-01-17T21:19:45.074Z,2.90
2019-01-17T21:21:37.754Z,2.76
2019-01-17T21:22:37.615Z,2.78
2019-01-17T21:24:30.275Z,2.60
2019-01-17T21:25:30.166Z,2.58
2019-01-17T21:27:22.832Z,2.58
2019-01-17T21:28:22.698Z,2.55
2019-01-17T21:30:15.379Z,2.70
2019-01-17T21:31:15.248Z,2.63
2019-01-17T21:33:08.275Z,2.69
2019-01-17T21:34:07.785Z,2.66
2019-01-17T21:36:00.457Z,2.69
2019-01-17T21:37:00.327Z,2.70
2019-01-17T21:38:52.981Z,2.72
2019-01-17T21:39:52.872Z,2.54
2019-01-17T21:41:45.550Z,2.60
2019-01-17T21:42:45.414Z,2.54
2019-01-17T21:44:38.087Z,2.60
2019-01-17T21:45:37.950Z,2.62
2019-01-17T21:47:30.701Z,2.59
2019-01-17T21:48:30.498Z,2.67
2019-01-17T21:50:23.175Z,2.52
2019-01-17T21:51:23.042Z,2.55
2019-01-17T21:53:15.980Z,2.44
2019-01-17T21:54:15.610Z,2.48
2019-01-17T21:56:08.309Z,2.45
2019-01-17T21:57:08.349Z,2.48
2019-01-17T21:59:01.339Z,2.41
2019-01-17T22:00:01.234Z,2.44
2019-01-17T22:01:53.945Z,2.45
2019-01-17T22:02:53.770Z,2.40
2019-01-17T22:04:46.431Z,2.51
2019-01-17T22:05:46.309Z,2.45
2019-01-17T22:07:38.982Z,2.48
2019-01-17T22:08:38.856Z,2.49
2019-01-17T22:10:31.518Z,2.58
2019-01-17T22:11:31.388Z,2.62
2019-01-17T22:13:24.061Z,2.59
2019-01-17T22:14:23.943Z,2.55
2019-01-17T22:16:16.619Z,2.60
2019-01-17T22:17:16.486Z,2.67
2019-01-17T22:19:09.140Z,2.80
2019-01-17T22:20:09.031Z,2.80
2019-01-17T22:22:01.700Z,2.73
2019-01-17T22:23:01.564Z,2.72
2019-01-17T22:24:54.260Z,2.69
2019-01-17T22:25:54.108Z,2.76
2019-01-17T22:27:46.781Z,2.70
2019-01-17T22:28:46.659Z,2.69
2019-01-17T22:30:39.327Z,2.70
2019-01-17T22:31:39.192Z,2.70
2019-01-17T22:33:31.852Z,2.66
2019-01-17T22:34:31.743Z,2.72
2019-01-17T22:36:24.415Z,2.70
2019-01-17T22:37:24.287Z,2.67
2019-01-17T22:39:16.943Z,2.63
2019-01-17T22:40:16.828Z,2.62
2019-01-17T22:42:09.503Z,2.59
2019-01-17T22:43:09.370Z,2.59
2019-01-17T22:45:02.041Z,2.60
2019-01-17T22:46:01.909Z,2.59
2019-01-17T22:47:54.569Z,2.58
2019-01-17T22:48:54.451Z,2.59
2019-01-17T22:50:47.122Z,2.62
2019-01-17T22:51:46.993Z,2.58
2019-01-17T22:53:39.658Z,2.58
2019-01-17T22:54:39.542Z,2.48
2019-01-17T22:56:32.214Z,2.47
2019-01-17T22:57:32.085Z,2.54
2019-01-17T22:59:24.756Z,2.45
